createdAt,value
2023-04-07T00:00:38.542Z,932.4
2023-04-07T00:15:40.185Z,932.5
2023-04-07T00:30:39.604Z,932.2
2023-04-07T00:45:40.731Z,932
2023-04-07T01:00:40.879Z,931.9
2023-04-07T01:15:41.296Z,931.6
2023-04-07T01:30:42.204Z,931.4
2023-04-07T01:45:42.514Z,931.5
2023-04-07T02:00:43.191Z,931.3
2023-04-07T02:15:43.652Z,931.2
2023-04-07T02:30:44.432Z,931.1
2023-04-07T02:45:45.300Z,930.8
2023-04-07T03:00:45.450Z,930.6
2023-04-07T03:15:46.040Z,930.4
2023-04-07T03:30:46.560Z,930.4
2023-04-07T03:45:47.046Z,930.2
2023-04-07T04:00:47.126Z,930.1
2023-04-07T04:15:48.422Z,930
2023-04-07T04:30:47.614Z,930
2023-04-07T04:43:50.893Z,930
2023-04-07T04:58:50.723Z,929.9
2023-04-07T05:13:53.256Z,929.7
2023-04-07T05:28:51.980Z,929.9
2023-04-07T05:43:53.564Z,929.9
2023-04-07T06:13:53.423Z,929.8
2023-04-07T06:28:54.067Z,929.9
2023-04-07T06:43:54.657Z,929.8
2023-04-07T06:58:54.622Z,929.6
2023-04-07T07:13:55.419Z,929.5
2023-04-07T07:28:57.157Z,929.5
2023-04-07T07:43:56.664Z,929.4
2023-04-07T07:58:58.884Z,929.3
2023-04-07T08:13:57.902Z,929.3
2023-04-07T08:28:58.513Z,929.3
2023-04-07T08:43:58.100Z,929.3
2023-04-07T08:58:59.312Z,929.2
2023-04-07T09:13:59.078Z,929.2
2023-04-07T09:28:59.686Z,929.2
2023-04-07T09:44:00.707Z,929
2023-04-07T09:59:01.478Z,929.1
2023-04-07T10:14:01.499Z,929.2
2023-04-07T10:29:02.616Z,929.1
2023-04-07T10:44:04.003Z,929.1
2023-04-07T10:59:03.252Z,929
2023-04-07T11:14:03.315Z,929.1
2023-04-07T11:29:04.244Z,929.2
2023-04-07T11:44:05.003Z,929.1
2023-04-07T11:59:05.546Z,929.1
2023-04-07T12:14:07.063Z,929.1
2023-04-07T12:29:05.890Z,929.2
2023-04-07T12:44:08.023Z,929.3
2023-04-07T12:59:07.675Z,929.3
2023-04-07T13:14:07.872Z,929.2
2023-04-07T13:29:08.609Z,929.1
2023-04-07T13:44:09.024Z,929.2
2023-04-07T13:59:09.498Z,929.3
2023-04-07T14:14:10.482Z,929.3
2023-04-07T14:29:10.145Z,929.4
2023-04-07T14:44:10.654Z,929.3
2023-04-07T14:59:11.477Z,929.5
2023-04-07T15:14:11.568Z,929.5
2023-04-07T15:29:14.014Z,929.6
2023-04-07T15:44:13.473Z,929.7
2023-04-07T15:59:14.153Z,929.9
2023-04-07T16:14:19.073Z,930.1
2023-04-07T16:29:14.811Z,930.9
2023-04-07T16:44:16.248Z,931.8
2023-04-07T16:59:15.812Z,933.9
2023-04-07T17:14:16.612Z,933.4
2023-04-07T17:29:17.399Z,932.8
2023-04-07T17:44:17.784Z,934.2
2023-04-07T17:59:18.324Z,934.5
2023-04-07T18:14:19.227Z,935.1
2023-04-07T18:29:19.160Z,935.5
2023-04-07T18:44:20.132Z,935.6
2023-04-07T18:59:20.654Z,936.2
2023-04-07T19:14:19.881Z,936.7
2023-04-07T19:29:20.803Z,937.3
2023-04-07T19:44:21.519Z,936.8
2023-04-07T19:59:22.971Z,935.7
2023-04-07T20:14:22.868Z,936
2023-04-07T20:29:22.836Z,936.6
2023-04-07T20:44:23.657Z,937
2023-04-07T20:59:23.610Z,936.5
2023-04-07T21:14:25.273Z,937.5
2023-04-07T21:29:25.970Z,938.4
2023-04-07T21:44:26.880Z,938.6
2023-04-07T21:59:26.753Z,938.8
2023-04-07T22:00:44.765Z,938.7
2023-04-07T22:15:40.592Z,939
2023-04-07T22:30:41.946Z,939.1
2023-04-07T22:45:40.943Z,939.2
2023-04-07T23:00:42.693Z,939.3
2023-04-07T23:15:42.378Z,939.3
2023-04-07T23:30:43.239Z,939.5
2023-04-07T23:45:41.816Z,939.5
